sensor_id;sensor_type;location;lat;lon;timestamp;temperature;humidity
46123;DHT22;31856;-35.404;149.120;2023-03-04T00:01:06;22.80;59.40
46123;DHT22;31856;-35.404;149.120;2023-03-04T00:03:36;22.90;59.00
46123;DHT22;31856;-35.404;149.120;2023-03-04T00:06:05;22.90;58.40
46123;DHT22;31856;-35.404;149.120;2023-03-04T00:08:35;23.10;57.70
46123;DHT22;31856;-35.404;149.120;2023-03-04T00:11:05;23.10;57.90
46123;DHT22;31856;-35.404;149.120;2023-03-04T00:13:35;23.20;57.70
46123;DHT22;31856;-35.404;149.120;2023-03-04T00:16:04;23.10;58.30
46123;DHT22;31856;-35.404;149.120;2023-03-04T00:18:34;23.00;57.90
46123;DHT22;31856;-35.404;149.120;2023-03-04T00:21:03;22.80;58.30
46123;DHT22;31856;-35.404;149.120;2023-03-04T00:23:33;22.80;59.00
46123;DHT22;31856;-35.404;149.120;2023-03-04T00:26:02;22.80;58.40
46123;DHT22;31856;-35.404;149.120;2023-03-04T00:28:32;22.90;58.50
46123;DHT22;31856;-35.404;149.120;2023-03-04T00:31:02;23.20;58.40
46123;DHT22;31856;-35.404;149.120;2023-03-04T00:33:32;23.30;57.80
46123;DHT22;31856;-35.404;149.120;2023-03-04T00:36:02;23.30;57.30
46123;DHT22;31856;-35.404;149.120;2023-03-04T00:38:31;23.30;57.40
46123;DHT22;31856;-35.404;149.120;2023-03-04T03:09:36;25.50;52.50
46123;DHT22;31856;-35.404;149.120;2023-03-04T03:12:06;25.40;52.40
46123;DHT22;31856;-35.404;149.120;2023-03-04T03:14:35;25.50;52.40
46123;DHT22;31856;-35.404;149.120;2023-03-04T03:17:05;25.70;52.00
46123;DHT22;31856;-35.404;149.120;2023-03-04T03:19:34;25.80;51.40
46123;DHT22;31856;-35.404;149.120;2023-03-04T03:22:04;26.10;51.30
46123;DHT22;31856;-35.404;149.120;2023-03-04T03:24:34;26.20;51.50
46123;DHT22;31856;-35.404;149.120;2023-03-04T03:27:04;26.20;51.00
46123;DHT22;31856;-35.404;149.120;2023-03-04T03:29:33;26.00;50.80
46123;DHT22;31856;-35.404;149.120;2023-03-04T03:32:03;25.80;51.00
46123;DHT22;31856;-35.404;149.120;2023-03-04T03:34:32;25.90;51.40
46123;DHT22;31856;-35.404;149.120;2023-03-04T03:37:02;26.10;50.70
46123;DHT22;31856;-35.404;149.120;2023-03-04T03:39:32;26.10;50.40
46123;DHT22;31856;-35.404;149.120;2023-03-04T03:42:02;26.00;50.20
46123;DHT22;31856;-35.404;149.120;2023-03-04T03:44:32;26.00;51.10
46123;DHT22;31856;-35.404;149.120;2023-03-04T03:47:02;25.80;51.00
46123;DHT22;31856;-35.404;149.120;2023-03-04T03:49:31;25.80;51.00
46123;DHT22;31856;-35.404;149.120;2023-03-04T03:52:02;25.70;50.80
46123;DHT22;31856;-35.404;149.120;2023-03-04T03:54:32;25.60;51.30
46123;DHT22;31856;-35.404;149.120;2023-03-04T03:57:02;25.50;51.30
46123;DHT22;31856;-35.404;149.120;2023-03-04T03:59:31;25.50;51.00
46123;DHT22;31856;-35.404;149.120;2023-03-04T04:02:01;25.70;51.30
46123;DHT22;31856;-35.404;149.120;2023-03-04T04:04:31;25.80;50.50
46123;DHT22;31856;-35.404;149.120;2023-03-04T04:07:01;25.80;50.70
46123;DHT22;31856;-35.404;149.120;2023-03-04T04:09:30;25.80;50.60
46123;DHT22;31856;-35.404;149.120;2023-03-04T04:12:00;25.70;51.00
46123;DHT22;31856;-35.404;149.120;2023-03-04T04:14:29;25.70;50.90
46123;DHT22;31856;-35.404;149.120;2023-03-04T04:16:59;25.60;51.30
46123;DHT22;31856;-35.404;149.120;2023-03-04T04:19:28;25.60;51.70
46123;DHT22;31856;-35.404;149.120;2023-03-04T04:21:59;25.60;51.40
46123;DHT22;31856;-35.404;149.120;2023-03-04T04:24:29;25.60;51.20
46123;DHT22;31856;-35.404;149.120;2023-03-04T04:26:58;25.60;51.10
46123;DHT22;31856;-35.404;149.120;2023-03-04T04:29:27;25.60;51.40
46123;DHT22;31856;-35.404;149.120;2023-03-04T04:31:57;25.60;52.00
46123;DHT22;31856;-35.404;149.120;2023-03-04T04:34:27;25.60;52.00
46123;DHT22;31856;-35.404;149.120;2023-03-04T04:36:56;25.50;51.80
46123;DHT22;31856;-35.404;149.120;2023-03-04T04:39:26;25.60;51.70
46123;DHT22;31856;-35.404;149.120;2023-03-04T04:41:55;25.70;51.60
46123;DHT22;31856;-35.404;149.120;2023-03-04T04:44:25;25.70;51.40
46123;DHT22;31856;-35.404;149.120;2023-03-04T04:46:54;25.70;51.30
46123;DHT22;31856;-35.404;149.120;2023-03-04T04:49:25;25.80;51.30
46123;DHT22;31856;-35.404;149.120;2023-03-04T04:51:55;26.00;50.60
46123;DHT22;31856;-35.404;149.120;2023-03-04T04:54:24;26.20;49.80
46123;DHT22;31856;-35.404;149.120;2023-03-04T04:56:54;26.30;49.30
46123;DHT22;31856;-35.404;149.120;2023-03-04T04:59:23;26.30;48.90
46123;DHT22;31856;-35.404;149.120;2023-03-04T05:01:53;26.30;49.00
46123;DHT22;31856;-35.404;149.120;2023-03-04T05:49:37;26.10;50.00
46123;DHT22;31856;-35.404;149.120;2023-03-04T05:52:08;26.00;50.00
46123;DHT22;31856;-35.404;149.120;2023-03-04T05:54:37;26.10;49.70
46123;DHT22;31856;-35.404;149.120;2023-03-04T05:57:07;26.20;49.40
46123;DHT22;31856;-35.404;149.120;2023-03-04T05:59:36;26.30;49.00
46123;DHT22;31856;-35.404;149.120;2023-03-04T06:02:06;26.10;49.40
46123;DHT22;31856;-35.404;149.120;2023-03-04T06:04:37;26.00;49.70
46123;DHT22;31856;-35.404;149.120;2023-03-04T06:07:09;26.00;49.50
46123;DHT22;31856;-35.404;149.120;2023-03-04T06:09:38;26.20;49.50
46123;DHT22;31856;-35.404;149.120;2023-03-04T06:12:08;26.30;49.60
46123;DHT22;31856;-35.404;149.120;2023-03-04T06:14:37;26.20;49.50
46123;DHT22;31856;-35.404;149.120;2023-03-04T06:17:06;26.00;50.10
46123;DHT22;31856;-35.404;149.120;2023-03-04T06:19:36;25.80;50.30
46123;DHT22;31856;-35.404;149.120;2023-03-04T06:22:05;25.70;50.50
46123;DHT22;31856;-35.404;149.120;2023-03-04T06:24:35;25.50;50.80
46123;DHT22;31856;-35.404;149.120;2023-03-04T06:27:05;25.50;51.20
46123;DHT22;31856;-35.404;149.120;2023-03-04T06:29:34;25.50;51.50
46123;DHT22;31856;-35.404;149.120;2023-03-04T06:32:04;25.50;51.30
46123;DHT22;31856;-35.404;149.120;2023-03-04T06:34:33;25.40;51.30
46123;DHT22;31856;-35.404;149.120;2023-03-04T06:37:03;25.30;50.90
46123;DHT22;31856;-35.404;149.120;2023-03-04T06:39:33;25.30;51.60
46123;DHT22;31856;-35.404;149.120;2023-03-04T06:42:03;25.20;51.40
46123;DHT22;31856;-35.404;149.120;2023-03-04T06:44:32;25.20;51.20
46123;DHT22;31856;-35.404;149.120;2023-03-04T06:47:03;25.20;51.50
46123;DHT22;31856;-35.404;149.120;2023-03-04T06:49:32;25.00;51.70
46123;DHT22;31856;-35.404;149.120;2023-03-04T06:52:03;25.00;52.00
46123;DHT22;31856;-35.404;149.120;2023-03-04T06:54:32;24.90;52.20
46123;DHT22;31856;-35.404;149.120;2023-03-04T06:57:03;24.90;52.30
46123;DHT22;31856;-35.404;149.120;2023-03-04T06:59:33;24.80;52.50
46123;DHT22;31856;-35.404;149.120;2023-03-04T07:02:02;24.70;52.60
46123;DHT22;31856;-35.404;149.120;2023-03-04T07:04:32;24.70;52.80
46123;DHT22;31856;-35.404;149.120;2023-03-04T07:07:02;24.60;53.10
46123;DHT22;31856;-35.404;149.120;2023-03-04T07:09:31;24.60;53.20
46123;DHT22;31856;-35.404;149.120;2023-03-04T07:12:02;24.50;53.40
46123;DHT22;31856;-35.404;149.120;2023-03-04T07:14:32;24.50;53.50
46123;DHT22;31856;-35.404;149.120;2023-03-04T07:17:02;24.40;53.70
46123;DHT22;31856;-35.404;149.120;2023-03-04T07:19:32;24.30;53.60
46123;DHT22;31856;-35.404;149.120;2023-03-04T07:22:01;24.30;53.80
46123;DHT22;31856;-35.404;149.120;2023-03-04T07:24:31;24.30;54.20
46123;DHT22;31856;-35.404;149.120;2023-03-04T07:27:00;24.30;54.40
46123;DHT22;31856;-35.404;149.120;2023-03-04T07:29:30;24.20;54.50
46123;DHT22;31856;-35.404;149.120;2023-03-04T07:31:59;24.30;54.50
46123;DHT22;31856;-35.404;149.120;2023-03-04T07:34:29;24.30;54.50
46123;DHT22;31856;-35.404;149.120;2023-03-04T07:36:58;24.20;54.80
46123;DHT22;31856;-35.404;149.120;2023-03-04T07:39:29;24.20;54.80
46123;DHT22;31856;-35.404;149.120;2023-03-04T08:24:20;23.20;60.20
46123;DHT22;31856;-35.404;149.120;2023-03-04T08:26:50;23.10;60.40
46123;DHT22;31856;-35.404;149.120;2023-03-04T08:29:22;23.10;59.70
46123;DHT22;31856;-35.404;149.120;2023-03-04T08:31:52;23.00;59.80
46123;DHT22;31856;-35.404;149.120;2023-03-04T08:34:24;23.00;59.70
46123;DHT22;31856;-35.404;149.120;2023-03-04T08:36:54;23.00;59.90
46123;DHT22;31856;-35.404;149.120;2023-03-04T08:39:24;22.90;59.90
46123;DHT22;31856;-35.404;149.120;2023-03-04T08:41:54;22.80;60.00
46123;DHT22;31856;-35.404;149.120;2023-03-04T08:44:24;22.80;60.20
46123;DHT22;31856;-35.404;149.120;2023-03-04T08:46:54;22.80;60.10
46123;DHT22;31856;-35.404;149.120;2023-03-04T08:49:25;22.80;59.90
46123;DHT22;31856;-35.404;149.120;2023-03-04T08:51:54;22.70;60.10
46123;DHT22;31856;-35.404;149.120;2023-03-04T08:54:24;22.70;60.30
46123;DHT22;31856;-35.404;149.120;2023-03-04T08:56:53;22.70;60.20
46123;DHT22;31856;-35.404;149.120;2023-03-04T08:59:23;22.60;60.30
46123;DHT22;31856;-35.404;149.120;2023-03-04T09:01:53;22.60;60.20
46123;DHT22;31856;-35.404;149.120;2023-03-04T09:04:23;22.60;60.20
46123;DHT22;31856;-35.404;149.120;2023-03-04T09:06:53;22.60;60.40
46123;DHT22;31856;-35.404;149.120;2023-03-04T09:09:22;22.60;60.50
46123;DHT22;31856;-35.404;149.120;2023-03-04T09:11:52;22.50;60.60
46123;DHT22;31856;-35.404;149.120;2023-03-04T09:14:22;22.50;60.70
46123;DHT22;31856;-35.404;149.120;2023-03-04T09:16:52;22.50;60.80
46123;DHT22;31856;-35.404;149.120;2023-03-04T09:19:24;22.50;60.90
46123;DHT22;31856;-35.404;149.120;2023-03-04T09:21:56;22.40;61.00
46123;DHT22;31856;-35.404;149.120;2023-03-04T09:24:27;22.40;61.10
46123;DHT22;31856;-35.404;149.120;2023-03-04T09:26:57;22.50;61.20
46123;DHT22;31856;-35.404;149.120;2023-03-04T09:29:27;22.40;61.30
46123;DHT22;31856;-35.404;149.120;2023-03-04T09:31:56;22.40;61.30
46123;DHT22;31856;-35.404;149.120;2023-03-04T09:34:26;22.40;61.50
46123;DHT22;31856;-35.404;149.120;2023-03-04T09:36:59;22.40;61.50
46123;DHT22;31856;-35.404;149.120;2023-03-04T09:39:32;22.40;61.60
46123;DHT22;31856;-35.404;149.120;2023-03-04T09:42:01;22.30;61.80
46123;DHT22;31856;-35.404;149.120;2023-03-04T09:44:37;22.30;61.80
46123;DHT22;31856;-35.404;149.120;2023-03-04T09:47:13;22.20;62.10
46123;DHT22;31856;-35.404;149.120;2023-03-04T09:49:53;22.20;62.00
46123;DHT22;31856;-35.404;149.120;2023-03-04T09:57:43;22.10;63.00
46123;DHT22;31856;-35.404;149.120;2023-03-04T10:10:59;22.00;63.50
46123;DHT22;31856;-35.404;149.120;2023-03-04T10:13:33;22.00;63.40
46123;DHT22;31856;-35.404;149.120;2023-03-04T10:16:05;22.00;63.50
46123;DHT22;31856;-35.404;149.120;2023-03-04T10:18:45;21.90;63.60
46123;DHT22;31856;-35.404;149.120;2023-03-04T10:22:01;21.90;63.70
46123;DHT22;31856;-35.404;149.120;2023-03-04T10:24:11;21.90;63.90
46123;DHT22;31856;-35.404;149.120;2023-03-04T10:26:43;21.80;64.20
46123;DHT22;31856;-35.404;149.120;2023-03-04T10:29:16;21.80;64.30
46123;DHT22;31856;-35.404;149.120;2023-03-04T10:31:45;21.80;64.20
46123;DHT22;31856;-35.404;149.120;2023-03-04T10:34:16;21.80;64.60
46123;DHT22;31856;-35.404;149.120;2023-03-04T10:57:47;21.50;66.10
46123;DHT22;31856;-35.404;149.120;2023-03-04T11:00:36;21.40;66.50
46123;DHT22;31856;-35.404;149.120;2023-03-04T11:03:27;21.40;66.80
46123;DHT22;31856;-35.404;149.120;2023-03-04T11:06:05;21.40;66.80
46123;DHT22;31856;-35.404;149.120;2023-03-04T11:08:35;21.30;66.80
46123;DHT22;31856;-35.404;149.120;2023-03-04T11:11:29;21.30;67.10
46123;DHT22;31856;-35.404;149.120;2023-03-04T11:13:55;21.30;67.20
46123;DHT22;31856;-35.404;149.120;2023-03-04T11:16:28;21.20;67.70
46123;DHT22;31856;-35.404;149.120;2023-03-04T11:19:02;21.10;67.80
46123;DHT22;31856;-35.404;149.120;2023-03-04T11:21:36;21.20;67.60
46123;DHT22;31856;-35.404;149.120;2023-03-04T11:24:13;21.10;68.10
46123;DHT22;31856;-35.404;149.120;2023-03-04T11:26:56;21.00;68.00
46123;DHT22;31856;-35.404;149.120;2023-03-04T11:34:38;20.90;68.50
46123;DHT22;31856;-35.404;149.120;2023-03-04T11:37:21;20.90;68.60
46123;DHT22;31856;-35.404;149.120;2023-03-04T11:45:15;20.80;68.90
46123;DHT22;31856;-35.404;149.120;2023-03-04T11:50:42;20.70;69.50
46123;DHT22;31856;-35.404;149.120;2023-03-04T11:53:32;20.70;69.70
46123;DHT22;31856;-35.404;149.120;2023-03-04T11:56:09;20.70;69.50
46123;DHT22;31856;-35.404;149.120;2023-03-04T12:01:18;20.50;70.10
46123;DHT22;31856;-35.404;149.120;2023-03-04T12:11:57;20.40;70.40
46123;DHT22;31856;-35.404;149.120;2023-03-04T12:30:05;20.10;71.40
46123;DHT22;31856;-35.404;149.120;2023-03-04T12:32:38;20.00;71.70
46123;DHT22;31856;-35.404;149.120;2023-03-04T12:37:49;20.00;71.70
46123;DHT22;31856;-35.404;149.120;2023-03-04T12:40:29;20.00;71.70
46123;DHT22;31856;-35.404;149.120;2023-03-04T12:56:25;19.70;73.00
46123;DHT22;31856;-35.404;149.120;2023-03-04T12:58:56;19.70;72.70
46123;DHT22;31856;-35.404;149.120;2023-03-04T13:01:31;19.60;72.90
46123;DHT22;31856;-35.404;149.120;2023-03-04T13:04:06;19.60;73.00
46123;DHT22;31856;-35.404;149.120;2023-03-04T13:09:30;19.60;73.00
46123;DHT22;31856;-35.404;149.120;2023-03-04T13:12:16;19.60;72.90
46123;DHT22;31856;-35.404;149.120;2023-03-04T18:52:02;16.70;78.20
46123;DHT22;31856;-35.404;149.120;2023-03-04T18:54:35;16.80;77.80
46123;DHT22;31856;-35.404;149.120;2023-03-04T18:57:06;16.80;77.90
46123;DHT22;31856;-35.404;149.120;2023-03-04T18:59:39;16.80;78.10
46123;DHT22;31856;-35.404;149.120;2023-03-04T19:02:21;16.80;78.10
46123;DHT22;31856;-35.404;149.120;2023-03-04T19:04:53;16.80;78.20
46123;DHT22;31856;-35.404;149.120;2023-03-04T19:07:24;16.80;78.20
46123;DHT22;31856;-35.404;149.120;2023-03-04T19:09:56;16.70;78.30
46123;DHT22;31856;-35.404;149.120;2023-03-04T19:12:26;16.70;78.20
46123;DHT22;31856;-35.404;149.120;2023-03-04T19:14:55;16.70;78.30
46123;DHT22;31856;-35.404;149.120;2023-03-04T19:17:25;16.60;78.30
46123;DHT22;31856;-35.404;149.120;2023-03-04T19:20:01;16.60;78.20
46123;DHT22;31856;-35.404;149.120;2023-03-04T19:22:31;16.50;78.50
46123;DHT22;31856;-35.404;149.120;2023-03-04T19:25:01;16.50;78.50
46123;DHT22;31856;-35.404;149.120;2023-03-04T19:27:31;16.60;78.30
46123;DHT22;31856;-35.404;149.120;2023-03-04T19:30:00;16.50;78.40
46123;DHT22;31856;-35.404;149.120;2023-03-04T19:32:29;16.50;78.30
46123;DHT22;31856;-35.404;149.120;2023-03-04T19:34:59;16.50;78.30
46123;DHT22;31856;-35.404;149.120;2023-03-04T19:37:29;16.40;78.50
46123;DHT22;31856;-35.404;149.120;2023-03-04T19:39:58;16.40;78.90
46123;DHT22;31856;-35.404;149.120;2023-03-04T19:42:28;16.30;79.00
46123;DHT22;31856;-35.404;149.120;2023-03-04T19:44:57;16.30;78.70
46123;DHT22;31856;-35.404;149.120;2023-03-04T19:47:27;16.30;78.90
46123;DHT22;31856;-35.404;149.120;2023-03-04T19:49:57;16.30;78.70
46123;DHT22;31856;-35.404;149.120;2023-03-04T19:52:28;16.30;78.80
46123;DHT22;31856;-35.404;149.120;2023-03-04T19:54:58;16.30;79.10
46123;DHT22;31856;-35.404;149.120;2023-03-04T19:57:27;16.30;79.10
46123;DHT22;31856;-35.404;149.120;2023-03-04T19:59:57;16.30;79.00
46123;DHT22;31856;-35.404;149.120;2023-03-04T20:02:26;16.30;79.10
46123;DHT22;31856;-35.404;149.120;2023-03-04T20:04:57;16.30;79.10
46123;DHT22;31856;-35.404;149.120;2023-03-04T20:07:26;16.30;79.10
46123;DHT22;31856;-35.404;149.120;2023-03-04T20:09:56;16.20;79.40
46123;DHT22;31856;-35.404;149.120;2023-03-04T20:12:25;16.20;79.50
46123;DHT22;31856;-35.404;149.120;2023-03-04T20:14:54;16.20;79.70
46123;DHT22;31856;-35.404;149.120;2023-03-04T20:17:24;16.20;79.90
46123;DHT22;31856;-35.404;149.120;2023-03-04T20:19:53;16.20;80.10
46123;DHT22;31856;-35.404;149.120;2023-03-04T20:22:23;16.20;80.40
46123;DHT22;31856;-35.404;149.120;2023-03-04T20:24:52;16.30;80.50
46123;DHT22;31856;-35.404;149.120;2023-03-04T20:27:22;16.20;80.40
46123;DHT22;31856;-35.404;149.120;2023-03-04T20:29:51;16.30;80.50
46123;DHT22;31856;-35.404;149.120;2023-03-04T20:32:21;16.30;80.30
46123;DHT22;31856;-35.404;149.120;2023-03-04T20:34:51;16.40;80.60
46123;DHT22;31856;-35.404;149.120;2023-03-04T20:37:24;16.40;80.60
46123;DHT22;31856;-35.404;149.120;2023-03-04T20:39:53;16.40;80.50
46123;DHT22;31856;-35.404;149.120;2023-03-04T20:42:24;16.40;80.70
46123;DHT22;31856;-35.404;149.120;2023-03-04T20:44:54;16.50;80.50
46123;DHT22;31856;-35.404;149.120;2023-03-04T20:47:23;16.50;80.50
46123;DHT22;31856;-35.404;149.120;2023-03-04T20:49:53;16.60;80.40
46123;DHT22;31856;-35.404;149.120;2023-03-04T20:52:22;16.70;80.60
46123;DHT22;31856;-35.404;149.120;2023-03-04T20:54:51;16.70;80.70
46123;DHT22;31856;-35.404;149.120;2023-03-04T20:57:21;16.70;80.40
46123;DHT22;31856;-35.404;149.120;2023-03-04T20:59:51;16.80;80.80
46123;DHT22;31856;-35.404;149.120;2023-03-04T21:02:20;16.80;80.70
46123;DHT22;31856;-35.404;149.120;2023-03-04T21:04:51;16.80;80.70
46123;DHT22;31856;-35.404;149.120;2023-03-04T21:07:21;16.90;81.00
46123;DHT22;31856;-35.404;149.120;2023-03-04T21:09:53;16.90;81.00
46123;DHT22;31856;-35.404;149.120;2023-03-04T21:12:23;17.00;80.70
46123;DHT22;31856;-35.404;149.120;2023-03-04T21:14:53;17.10;80.30
46123;DHT22;31856;-35.404;149.120;2023-03-04T21:17:23;17.20;80.00
46123;DHT22;31856;-35.404;149.120;2023-03-04T21:19:53;17.60;78.60
46123;DHT22;31856;-35.404;149.120;2023-03-04T21:22:23;18.20;76.80
46123;DHT22;31856;-35.404;149.120;2023-03-04T21:24:55;18.80;74.90
46123;DHT22;31856;-35.404;149.120;2023-03-04T21:27:24;19.30;73.20
46123;DHT22;31856;-35.404;149.120;2023-03-04T21:29:54;18.70;74.20
46123;DHT22;31856;-35.404;149.120;2023-03-04T21:32:24;18.80;74.30
46123;DHT22;31856;-35.404;149.120;2023-03-04T21:37:41;18.30;75.50
46123;DHT22;31856;-35.404;149.120;2023-03-04T21:40:10;18.20;76.20
46123;DHT22;31856;-35.404;149.120;2023-03-04T21:42:40;18.00;76.50
46123;DHT22;31856;-35.404;149.120;2023-03-04T21:45:10;17.90;77.10
46123;DHT22;31856;-35.404;149.120;2023-03-04T21:47:42;17.80;77.80
46123;DHT22;31856;-35.404;149.120;2023-03-04T21:50:15;17.80;77.60
46123;DHT22;31856;-35.404;149.120;2023-03-04T21:52:48;17.70;77.90
46123;DHT22;31856;-35.404;149.120;2023-03-04T21:55:18;17.70;78.00
46123;DHT22;31856;-35.404;149.120;2023-03-04T21:57:47;17.80;77.90
46123;DHT22;31856;-35.404;149.120;2023-03-04T22:00:16;18.00;77.80
46123;DHT22;31856;-35.404;149.120;2023-03-04T22:02:46;18.20;77.20
46123;DHT22;31856;-35.404;149.120;2023-03-04T22:05:15;18.40;76.50
46123;DHT22;31856;-35.404;149.120;2023-03-04T22:07:45;18.50;76.20
46123;DHT22;31856;-35.404;149.120;2023-03-04T22:10:15;18.70;76.30
46123;DHT22;31856;-35.404;149.120;2023-03-04T22:12:45;18.80;76.00
46123;DHT22;31856;-35.404;149.120;2023-03-04T22:15:14;18.90;75.40
46123;DHT22;31856;-35.404;149.120;2023-03-04T22:17:44;19.00;74.60
46123;DHT22;31856;-35.404;149.120;2023-03-04T22:20:13;19.10;74.40
46123;DHT22;31856;-35.404;149.120;2023-03-04T22:22:44;19.30;74.00
46123;DHT22;31856;-35.404;149.120;2023-03-04T22:25:13;19.40;73.50
46123;DHT22;31856;-35.404;149.120;2023-03-04T22:27:43;19.40;72.80
46123;DHT22;31856;-35.404;149.120;2023-03-04T22:30:12;19.50;72.90
46123;DHT22;31856;-35.404;149.120;2023-03-04T22:32:44;19.60;72.60
46123;DHT22;31856;-35.404;149.120;2023-03-04T22:35:14;19.60;72.60
46123;DHT22;31856;-35.404;149.120;2023-03-04T22:37:44;19.60;72.50
46123;DHT22;31856;-35.404;149.120;2023-03-04T22:40:13;19.40;72.20
46123;DHT22;31856;-35.404;149.120;2023-03-04T22:42:44;19.30;72.20
46123;DHT22;31856;-35.404;149.120;2023-03-04T22:45:15;19.20;73.10
46123;DHT22;31856;-35.404;149.120;2023-03-04T22:47:46;19.40;72.90
46123;DHT22;31856;-35.404;149.120;2023-03-04T22:50:16;19.60;72.40
46123;DHT22;31856;-35.404;149.120;2023-03-04T22:52:46;19.80;72.00
46123;DHT22;31856;-35.404;149.120;2023-03-04T22:55:16;19.90;71.20
46123;DHT22;31856;-35.404;149.120;2023-03-04T22:57:46;20.10;70.90
46123;DHT22;31856;-35.404;149.120;2023-03-04T23:00:21;20.20;70.20
46123;DHT22;31856;-35.404;149.120;2023-03-04T23:02:51;20.30;70.00
46123;DHT22;31856;-35.404;149.120;2023-03-04T23:05:20;20.40;69.90
46123;DHT22;31856;-35.404;149.120;2023-03-04T23:07:50;20.50;69.60
46123;DHT22;31856;-35.404;149.120;2023-03-04T23:10:20;20.70;69.40
46123;DHT22;31856;-35.404;149.120;2023-03-04T23:12:50;20.80;68.70
46123;DHT22;31856;-35.404;149.120;2023-03-04T23:15:20;20.80;68.40
46123;DHT22;31856;-35.404;149.120;2023-03-04T23:17:50;20.80;68.40
46123;DHT22;31856;-35.404;149.120;2023-03-04T23:20:20;20.80;68.60
46123;DHT22;31856;-35.404;149.120;2023-03-04T23:22:50;20.80;68.60
46123;DHT22;31856;-35.404;149.120;2023-03-04T23:25:19;20.80;68.60
46123;DHT22;31856;-35.404;149.120;2023-03-04T23:27:48;20.80;68.40
46123;DHT22;31856;-35.404;149.120;2023-03-04T23:30:18;20.90;68.70
46123;DHT22;31856;-35.404;149.120;2023-03-04T23:32:47;21.20;68.20
46123;DHT22;31856;-35.404;149.120;2023-03-04T23:35:17;21.30;67.40
46123;DHT22;31856;-35.404;149.120;2023-03-04T23:37:47;21.50;67.10
46123;DHT22;31856;-35.404;149.120;2023-03-04T23:40:17;21.80;64.90
46123;DHT22;31856;-35.404;149.120;2023-03-04T23:42:47;22.00;63.80
46123;DHT22;31856;-35.404;149.120;2023-03-04T23:45:16;22.30;63.40
46123;DHT22;31856;-35.404;149.120;2023-03-04T23:47:45;22.30;61.30
46123;DHT22;31856;-35.404;149.120;2023-03-04T23:50:15;22.20;62.00
46123;DHT22;31856;-35.404;149.120;2023-03-04T23:52:44;22.10;62.10
46123;DHT22;31856;-35.404;149.120;2023-03-04T23:55:18;21.90;63.10
46123;DHT22;31856;-35.404;149.120;2023-03-04T23:57:48;21.80;65.10
